createdAt,value
2017-08-03T00:02:08.380Z,9.97
2017-08-03T00:04:37.441Z,9.30
2017-08-03T00:07:06.517Z,11.17
2017-08-03T00:09:35.584Z,11.20
2017-08-03T00:12:04.666Z,10.83
2017-08-03T00:14:33.734Z,10.63
2017-08-03T00:17:02.787Z,11.23
2017-08-03T00:19:31.895Z,11.20
2017-08-03T00:22:00.950Z,11.87
2017-08-03T00:24:30.002Z,10.33
2017-08-03T00:26:59.111Z,10.57
2017-08-03T00:29:28.166Z,11.80
2017-08-03T00:31:57.239Z,12.50
2017-08-03T00:34:26.289Z,13.30
2017-08-03T00:36:55.368Z,15.33
2017-08-03T00:39:24.424Z,17.50
2017-08-03T00:41:53.478Z,20.93
2017-08-03T00:44:22.572Z,18.80
2017-08-03T00:46:51.622Z,21.10
2017-08-03T00:49:20.694Z,22.80
2017-08-03T00:51:49.757Z,23.47
2017-08-03T00:54:18.812Z,25.10
2017-08-03T00:56:47.866Z,26.37
2017-08-03T00:59:16.940Z,25.80
2017-08-03T01:01:45.983Z,27.13
2017-08-03T01:04:15.067Z,27.20
2017-08-03T01:06:44.123Z,24.70
2017-08-03T01:09:13.198Z,24.47
2017-08-03T01:11:42.279Z,27.87
2017-08-03T01:14:11.584Z,24.60
2017-08-03T01:16:40.841Z,23.80
2017-08-03T01:19:09.957Z,25.27
2017-08-03T01:21:39.003Z,25.70
2017-08-03T01:24:08.071Z,23.47
2017-08-03T01:26:37.134Z,22.90
2017-08-03T01:29:06.228Z,25.07
2017-08-03T01:31:35.315Z,22.13
2017-08-03T01:34:04.395Z,21.67
2017-08-03T01:36:33.466Z,19.87
2017-08-03T01:39:02.520Z,20.60
2017-08-03T01:41:31.592Z,18.43
2017-08-03T01:44:00.664Z,19.10
2017-08-03T01:46:29.719Z,18.17
2017-08-03T01:48:58.825Z,19.23
2017-08-03T01:51:27.876Z,18.97
2017-08-03T01:53:56.955Z,16.60
2017-08-03T01:56:26.023Z,16.70
2017-08-03T01:58:55.112Z,18.50
2017-08-03T02:01:24.182Z,15.93
2017-08-03T02:03:53.254Z,16.53
2017-08-03T02:06:22.323Z,16.03
2017-08-03T02:08:51.421Z,14.07
2017-08-03T02:11:20.531Z,13.70
2017-08-03T02:13:49.635Z,13.33
2017-08-03T02:16:18.756Z,14.27
2017-08-03T02:18:47.913Z,14.13
2017-08-03T02:21:17.032Z,14.33
2017-08-03T02:23:46.093Z,14.57
2017-08-03T02:26:15.148Z,15.13
2017-08-03T02:28:44.198Z,13.30
2017-08-03T02:31:13.312Z,12.43
2017-08-03T02:33:42.615Z,15.20
2017-08-03T02:36:11.668Z,14.63
2017-08-03T02:38:40.715Z,15.10
2017-08-03T02:41:09.799Z,14.53
2017-08-03T02:43:38.886Z,13.30
2017-08-03T02:46:07.951Z,14.13
2017-08-03T02:48:37.012Z,14.53
2017-08-03T02:51:06.092Z,13.23
2017-08-03T02:53:35.159Z,13.37
2017-08-03T02:56:04.228Z,13.70
2017-08-03T02:58:33.342Z,14.50
2017-08-03T03:01:02.405Z,13.43
2017-08-03T03:03:32.521Z,13.07
2017-08-03T03:06:01.607Z,13.93
2017-08-03T03:08:30.655Z,12.70
2017-08-03T03:10:59.781Z,12.93
2017-08-03T03:13:28.864Z,14.50
2017-08-03T03:15:57.979Z,14.87
2017-08-03T03:18:27.936Z,12.13
2017-08-03T03:20:56.979Z,13.47
2017-08-03T03:23:26.052Z,12.83
2017-08-03T03:25:55.119Z,12.97
2017-08-03T03:28:24.182Z,14.47
2017-08-03T03:30:53.283Z,14.17
2017-08-03T03:33:22.330Z,14.80
2017-08-03T03:35:51.412Z,14.70
2017-08-03T03:38:20.516Z,15.90
2017-08-03T03:40:50.626Z,15.80
2017-08-03T03:43:19.686Z,17.27
2017-08-03T03:45:48.740Z,16.97
2017-08-03T03:48:17.809Z,14.87
2017-08-03T03:50:46.871Z,13.60
2017-08-03T03:53:15.948Z,15.23
2017-08-03T03:55:45.008Z,15.00
2017-08-03T03:58:14.060Z,12.90
2017-08-03T04:00:43.123Z,11.23
2017-08-03T04:03:12.202Z,12.30
2017-08-03T04:05:41.244Z,11.67
2017-08-03T04:08:10.338Z,10.67
2017-08-03T04:10:39.354Z,10.80
2017-08-03T04:13:08.488Z,11.07
2017-08-03T04:15:37.549Z,10.73
2017-08-03T04:18:06.604Z,10.80
2017-08-03T04:20:35.653Z,11.10
2017-08-03T04:23:04.720Z,10.57
2017-08-03T04:25:34.022Z,10.63
2017-08-03T04:28:03.044Z,10.20
2017-08-03T04:30:32.103Z,10.27
2017-08-03T04:33:01.181Z,11.20
2017-08-03T04:35:30.224Z,10.70
2017-08-03T04:37:59.303Z,10.23
2017-08-03T04:40:28.342Z,10.20
2017-08-03T04:42:57.387Z,10.43
2017-08-03T04:45:26.533Z,9.70
2017-08-03T04:47:55.571Z,10.33
2017-08-03T04:50:24.640Z,10.33
2017-08-03T04:52:53.703Z,10.37
2017-08-03T04:55:22.778Z,10.60
2017-08-03T04:57:51.846Z,9.30
2017-08-03T05:00:21.147Z,9.70
2017-08-03T05:02:50.242Z,10.00
2017-08-03T05:05:19.279Z,9.40
2017-08-03T05:07:48.354Z,9.80
2017-08-03T05:10:17.419Z,8.73
2017-08-03T05:12:46.510Z,10.07
2017-08-03T05:15:15.607Z,9.30
2017-08-03T05:17:44.674Z,9.40
2017-08-03T05:20:13.975Z,9.60
2017-08-03T05:22:43.027Z,9.50
2017-08-03T05:25:12.108Z,10.10
2017-08-03T05:27:41.171Z,10.73
2017-08-03T05:30:10.270Z,9.20
2017-08-03T05:32:39.360Z,10.10
2017-08-03T05:35:08.395Z,11.17
2017-08-03T05:37:37.434Z,11.20
2017-08-03T05:40:06.547Z,10.00
2017-08-03T05:42:35.623Z,10.73
2017-08-03T05:45:04.735Z,10.03
2017-08-03T05:47:33.759Z,10.03
2017-08-03T05:50:02.839Z,9.77
2017-08-03T05:52:31.891Z,9.90
2017-08-03T05:55:00.948Z,10.63
2017-08-03T05:57:29.995Z,9.70
2017-08-03T05:59:59.092Z,10.50
2017-08-03T06:02:28.136Z,10.53
2017-08-03T06:04:57.204Z,10.30
2017-08-03T06:07:26.260Z,10.77
2017-08-03T06:09:55.302Z,10.40
2017-08-03T06:12:24.415Z,10.07
2017-08-03T06:14:53.484Z,10.60
2017-08-03T06:17:22.568Z,11.30
2017-08-03T06:19:51.625Z,10.23
2017-08-03T06:22:20.681Z,11.00
2017-08-03T06:24:49.768Z,10.37
2017-08-03T06:27:18.852Z,10.73
2017-08-03T06:29:47.920Z,10.60
2017-08-03T06:32:16.978Z,10.80
2017-08-03T06:34:46.046Z,9.73
2017-08-03T06:37:15.064Z,10.60
2017-08-03T06:39:44.136Z,10.60
2017-08-03T06:42:13.212Z,10.37
2017-08-03T06:44:42.285Z,10.10
2017-08-03T06:47:11.364Z,11.17
2017-08-03T06:49:40.411Z,10.17
2017-08-03T06:52:09.489Z,10.13
2017-08-03T06:54:38.531Z,9.60
2017-08-03T06:57:07.628Z,10.10
2017-08-03T06:59:36.681Z,9.80
2017-08-03T07:02:05.773Z,11.20
2017-08-03T07:04:34.801Z,8.80
2017-08-03T07:07:03.902Z,11.13
2017-08-03T07:09:32.988Z,10.10
2017-08-03T07:12:02.064Z,10.47
2017-08-03T07:14:31.144Z,11.20
2017-08-03T07:17:00.176Z,11.27
2017-08-03T07:19:29.261Z,9.77
2017-08-03T07:21:58.312Z,10.60
2017-08-03T07:24:27.387Z,10.70
2017-08-03T07:26:56.431Z,11.70
2017-08-03T07:29:25.483Z,11.33
2017-08-03T07:31:54.563Z,10.70
2017-08-03T07:34:23.624Z,9.83
2017-08-03T07:36:52.663Z,8.10
2017-08-03T07:39:21.724Z,9.90
2017-08-03T07:41:50.816Z,10.07
2017-08-03T07:44:19.916Z,9.93
2017-08-03T07:46:48.964Z,9.07
2017-08-03T07:49:18.026Z,9.20
2017-08-03T07:51:47.064Z,9.10
2017-08-03T07:54:16.172Z,10.00
2017-08-03T07:56:45.204Z,8.97
2017-08-03T07:59:14.299Z,9.13
2017-08-03T08:01:43.344Z,8.23
2017-08-03T08:04:12.396Z,7.20
2017-08-03T08:06:41.484Z,8.20
2017-08-03T08:09:10.655Z,7.00
2017-08-03T08:11:39.710Z,6.80
2017-08-03T08:14:08.812Z,6.60
2017-08-03T08:16:37.856Z,6.97
2017-08-03T08:19:06.948Z,5.80
2017-08-03T08:21:35.988Z,6.17
2017-08-03T08:24:05.120Z,5.57
2017-08-03T08:26:34.163Z,5.90
2017-08-03T08:29:03.241Z,5.57
2017-08-03T08:31:32.284Z,5.83
2017-08-03T08:34:01.332Z,5.87
2017-08-03T08:36:30.444Z,6.00
2017-08-03T08:38:59.496Z,5.43
2017-08-03T08:41:28.531Z,6.00
2017-08-03T08:43:57.615Z,5.50
2017-08-03T08:46:26.642Z,5.53
2017-08-03T08:48:55.703Z,6.00
2017-08-03T08:51:24.744Z,5.43
2017-08-03T08:53:53.810Z,5.43
2017-08-03T08:56:22.872Z,5.20
2017-08-03T08:58:51.938Z,5.53
2017-08-03T09:01:20.978Z,5.30
2017-08-03T09:03:50.060Z,5.17
2017-08-03T09:06:19.168Z,5.83
2017-08-03T09:08:48.250Z,5.33
2017-08-03T09:11:17.536Z,4.87
2017-08-03T09:13:46.591Z,4.17
2017-08-03T09:16:15.713Z,4.20
2017-08-03T09:18:44.742Z,4.60
2017-08-03T09:21:13.763Z,4.40
2017-08-03T09:23:42.853Z,4.60
2017-08-03T09:26:11.909Z,4.40
2017-08-03T09:28:40.958Z,4.50
2017-08-03T09:31:09.991Z,4.90
2017-08-03T09:33:39.065Z,4.47
2017-08-03T09:36:08.161Z,4.50
2017-08-03T09:38:37.194Z,4.03
2017-08-03T09:41:06.260Z,4.40
2017-08-03T09:43:35.272Z,4.00
2017-08-03T09:46:04.336Z,3.60
2017-08-03T09:48:33.385Z,3.53
2017-08-03T09:51:02.456Z,3.93
2017-08-03T09:53:31.525Z,3.90
2017-08-03T09:56:00.573Z,3.13
2017-08-03T09:58:29.640Z,3.90
2017-08-03T10:00:58.715Z,3.53
2017-08-03T10:03:27.757Z,3.60
2017-08-03T10:05:56.813Z,3.60
2017-08-03T10:08:25.910Z,3.43
2017-08-03T10:10:55.156Z,3.07
2017-08-03T10:13:24.203Z,3.37
2017-08-03T10:15:53.284Z,3.27
2017-08-03T10:18:22.371Z,4.00
2017-08-03T10:20:51.419Z,3.60
2017-08-03T10:23:20.473Z,4.03
2017-08-03T10:25:49.543Z,3.80
2017-08-03T10:28:18.611Z,3.60
2017-08-03T10:30:47.703Z,4.07
2017-08-03T10:33:16.748Z,3.90
2017-08-03T10:35:45.781Z,4.90
2017-08-03T10:38:14.912Z,4.40
2017-08-03T10:40:43.991Z,5.07
2017-08-03T10:43:13.074Z,4.13
2017-08-03T10:45:42.125Z,4.47
2017-08-03T10:48:11.194Z,4.43
2017-08-03T10:50:40.243Z,4.40
2017-08-03T10:53:09.315Z,4.87
2017-08-03T10:55:38.447Z,4.73
2017-08-03T10:58:07.501Z,4.80
2017-08-03T11:00:36.651Z,4.33
2017-08-03T11:03:05.776Z,5.27
2017-08-03T11:05:34.852Z,4.27
2017-08-03T11:08:03.951Z,4.97
2017-08-03T11:10:32.980Z,4.23
2017-08-03T11:13:02.072Z,4.60
2017-08-03T11:15:31.165Z,4.70
2017-08-03T11:18:00.219Z,4.87
2017-08-03T11:20:29.264Z,4.43
2017-08-03T11:22:58.349Z,5.20
2017-08-03T11:25:27.447Z,4.37
2017-08-03T11:27:56.502Z,4.70
2017-08-03T11:30:25.561Z,4.70
2017-08-03T11:32:54.641Z,4.80
2017-08-03T11:35:23.684Z,5.00
2017-08-03T11:37:52.749Z,5.80
2017-08-03T11:40:21.840Z,4.70
2017-08-03T11:42:50.897Z,3.60
2017-08-03T11:45:20.000Z,3.43
2017-08-03T11:47:49.055Z,3.03
2017-08-03T11:50:18.136Z,3.53
2017-08-03T11:52:47.255Z,3.60
2017-08-03T11:55:16.314Z,3.80
2017-08-03T11:57:45.620Z,3.30
2017-08-03T12:00:14.883Z,3.00
2017-08-03T12:02:43.943Z,3.30
2017-08-03T12:05:12.993Z,3.20
2017-08-03T12:07:42.065Z,3.10
2017-08-03T12:10:11.120Z,3.23
2017-08-03T12:12:40.202Z,3.50
2017-08-03T12:15:09.271Z,3.03
2017-08-03T12:17:38.317Z,3.27
2017-08-03T12:20:07.504Z,3.33
2017-08-03T12:22:36.549Z,3.33
2017-08-03T12:25:05.809Z,3.50
2017-08-03T12:27:34.892Z,3.23
2017-08-03T12:30:04.021Z,3.20
2017-08-03T12:32:33.063Z,2.63
2017-08-03T12:35:02.166Z,3.00
2017-08-03T12:37:31.222Z,2.70
2017-08-03T12:40:00.288Z,2.40
2017-08-03T12:42:29.385Z,2.80
2017-08-03T12:44:58.463Z,2.60
2017-08-03T12:47:27.534Z,2.67
2017-08-03T12:49:56.607Z,2.40
2017-08-03T12:52:25.666Z,2.30
2017-08-03T12:54:54.738Z,3.00
2017-08-03T12:57:23.810Z,2.27
2017-08-03T12:59:52.864Z,2.53
2017-08-03T13:02:21.926Z,2.60
2017-08-03T13:04:51.018Z,2.37
2017-08-03T13:07:20.089Z,2.40
2017-08-03T13:09:49.133Z,2.53
2017-08-03T13:12:18.212Z,2.77
2017-08-03T13:14:47.267Z,2.20
2017-08-03T13:17:16.347Z,2.00
2017-08-03T13:19:45.416Z,2.40
2017-08-03T13:22:15.200Z,2.57
2017-08-03T13:24:44.258Z,2.73
2017-08-03T13:27:13.313Z,2.30
2017-08-03T13:29:42.380Z,2.57
2017-08-03T13:32:11.437Z,2.20
2017-08-03T13:34:40.571Z,1.93
2017-08-03T13:37:09.685Z,2.07
2017-08-03T13:39:38.707Z,1.80
2017-08-03T13:42:07.881Z,2.10
2017-08-03T13:44:36.939Z,1.77
2017-08-03T13:47:05.975Z,2.10
2017-08-03T13:49:35.032Z,1.60
2017-08-03T13:52:04.069Z,2.10
2017-08-03T13:54:33.115Z,1.93
2017-08-03T13:57:02.203Z,2.10
2017-08-03T13:59:31.272Z,2.00
2017-08-03T14:02:00.328Z,2.40
2017-08-03T14:04:29.366Z,2.10
2017-08-03T14:06:58.454Z,2.30
2017-08-03T14:09:27.502Z,2.30
2017-08-03T14:11:56.715Z,2.23
2017-08-03T14:14:25.770Z,2.30
2017-08-03T14:16:54.827Z,2.43
2017-08-03T14:19:23.893Z,2.80
2017-08-03T14:21:52.966Z,2.23
2017-08-03T14:24:22.028Z,3.00
2017-08-03T14:26:51.061Z,2.50
2017-08-03T14:29:20.142Z,2.50
2017-08-03T14:31:49.184Z,2.30
2017-08-03T14:34:18.256Z,2.30
2017-08-03T14:36:47.320Z,2.60
2017-08-03T14:39:16.381Z,2.40
2017-08-03T14:41:45.457Z,2.33
2017-08-03T14:44:14.500Z,2.40
2017-08-03T14:46:43.562Z,2.40
2017-08-03T14:49:12.622Z,2.27
2017-08-03T14:51:41.680Z,2.50
2017-08-03T14:54:10.733Z,2.00
2017-08-03T14:56:39.793Z,2.20
2017-08-03T14:59:08.856Z,2.13
2017-08-03T15:01:37.920Z,1.93
2017-08-03T15:04:06.992Z,2.20
2017-08-03T15:06:36.024Z,2.10
2017-08-03T15:09:05.093Z,2.10
2017-08-03T15:11:34.149Z,2.17
2017-08-03T15:14:03.232Z,3.00
2017-08-03T15:16:32.286Z,2.50
2017-08-03T15:19:01.363Z,2.63
2017-08-03T15:21:30.395Z,2.53
2017-08-03T15:23:59.454Z,2.60
2017-08-03T15:26:28.546Z,2.70
2017-08-03T15:28:57.593Z,3.50
2017-08-03T15:31:26.668Z,2.43
2017-08-03T15:33:55.719Z,1.93
2017-08-03T15:36:24.764Z,2.70
2017-08-03T15:38:53.877Z,2.73
2017-08-03T15:41:22.952Z,2.43
2017-08-03T15:43:52.045Z,2.17
2017-08-03T15:46:21.108Z,2.10
2017-08-03T15:48:50.175Z,2.50
2017-08-03T15:51:19.254Z,2.27
2017-08-03T15:53:48.312Z,2.10
2017-08-03T15:56:17.400Z,2.53
2017-08-03T15:58:46.452Z,2.50
2017-08-03T16:01:15.528Z,2.43
2017-08-03T16:03:44.624Z,2.00
2017-08-03T16:06:13.703Z,2.23
2017-08-03T16:08:42.752Z,2.63
2017-08-03T16:11:11.847Z,2.30
2017-08-03T16:13:40.923Z,2.90
2017-08-03T16:16:10.235Z,2.63
2017-08-03T16:18:39.295Z,2.13
2017-08-03T16:21:08.386Z,2.40
2017-08-03T16:23:37.759Z,2.30
2017-08-03T16:26:06.839Z,2.53
2017-08-03T16:28:35.892Z,2.90
2017-08-03T16:31:04.972Z,2.10
2017-08-03T16:33:34.029Z,2.30
2017-08-03T16:36:03.112Z,2.23
2017-08-03T16:38:32.200Z,2.70
2017-08-03T16:41:01.272Z,2.30
2017-08-03T16:43:30.337Z,2.40
2017-08-03T16:45:59.381Z,2.10
2017-08-03T16:48:28.441Z,2.47
2017-08-03T16:50:57.491Z,2.10
2017-08-03T16:53:26.555Z,2.17
2017-08-03T16:55:55.614Z,2.70
2017-08-03T16:58:24.698Z,2.60
2017-08-03T17:00:53.736Z,2.60
2017-08-03T17:03:22.808Z,2.20
2017-08-03T17:05:51.839Z,2.30
2017-08-03T17:08:20.919Z,2.60
2017-08-03T17:10:49.982Z,2.60
2017-08-03T17:13:19.051Z,2.07
2017-08-03T17:15:48.107Z,2.20
2017-08-03T17:18:17.139Z,2.50
2017-08-03T17:20:46.205Z,2.13
2017-08-03T17:23:15.287Z,2.60
2017-08-03T17:25:44.334Z,2.80
2017-08-03T17:28:13.389Z,2.40
2017-08-03T17:30:42.459Z,2.73
2017-08-03T17:33:11.515Z,2.70
2017-08-03T17:35:40.596Z,2.33
2017-08-03T17:38:09.679Z,2.80
2017-08-03T17:40:38.765Z,2.63
2017-08-03T17:43:07.872Z,2.80
2017-08-03T17:45:36.921Z,2.27
2017-08-03T17:48:06.016Z,2.10
2017-08-03T17:50:35.067Z,2.60
2017-08-03T17:53:04.143Z,2.07
2017-08-03T17:55:33.181Z,2.90
2017-08-03T17:58:02.245Z,2.23
2017-08-03T18:00:31.304Z,2.67
2017-08-03T18:03:00.352Z,2.37
2017-08-03T18:05:29.401Z,2.17
2017-08-03T18:07:58.466Z,2.30
2017-08-03T18:10:27.548Z,2.20
2017-08-03T18:12:56.614Z,2.07
2017-08-03T18:15:25.700Z,2.00
2017-08-03T18:17:54.991Z,2.57
2017-08-03T18:20:24.090Z,2.30
2017-08-03T18:22:53.128Z,2.47
2017-08-03T18:25:22.188Z,2.17
2017-08-03T18:27:51.240Z,2.23
2017-08-03T18:30:20.303Z,2.60
2017-08-03T18:32:49.324Z,2.23
2017-08-03T18:35:18.444Z,2.27
2017-08-03T18:37:47.475Z,2.37
2017-08-03T18:40:16.521Z,2.50
2017-08-03T18:42:45.571Z,2.27
2017-08-03T18:45:14.619Z,2.40
2017-08-03T18:47:43.692Z,2.10
2017-08-03T18:50:12.753Z,2.57
2017-08-03T18:52:41.813Z,2.50
2017-08-03T18:55:10.931Z,2.50
2017-08-03T18:57:39.959Z,2.23
2017-08-03T19:00:09.613Z,1.97
2017-08-03T19:02:38.666Z,2.03
2017-08-03T19:05:07.715Z,2.60
2017-08-03T19:07:36.794Z,2.20
2017-08-03T19:10:05.849Z,2.20
2017-08-03T19:12:35.031Z,2.27
2017-08-03T19:15:04.148Z,2.30
2017-08-03T19:17:33.188Z,2.70
2017-08-03T19:20:02.288Z,2.00
2017-08-03T19:22:32.840Z,2.60
2017-08-03T19:25:01.898Z,2.40
2017-08-03T19:27:30.998Z,2.10
2017-08-03T19:30:00.086Z,1.97
2017-08-03T19:32:29.133Z,2.53
2017-08-03T19:34:58.216Z,2.10
2017-08-03T19:37:27.319Z,2.10
2017-08-03T19:39:56.392Z,2.40
2017-08-03T19:42:25.436Z,2.37
2017-08-03T19:44:55.267Z,2.47
2017-08-03T19:47:24.334Z,3.07
2017-08-03T19:49:54.156Z,2.27
2017-08-03T19:52:24.023Z,1.97
2017-08-03T19:54:53.052Z,1.90
2017-08-03T19:57:22.130Z,2.30
2017-08-03T19:59:51.200Z,2.40
2017-08-03T20:02:20.268Z,2.17
2017-08-03T20:04:49.340Z,2.80
2017-08-03T20:07:34.126Z,2.70
2017-08-03T20:10:03.319Z,2.27
2017-08-03T20:12:32.368Z,2.47
2017-08-03T20:15:01.420Z,2.67
2017-08-03T20:17:30.502Z,2.30
2017-08-03T20:19:59.556Z,2.50
2017-08-03T20:22:28.665Z,2.00
2017-08-03T20:24:57.711Z,2.03
2017-08-03T20:27:26.804Z,2.57
2017-08-03T20:29:55.859Z,1.70
2017-08-03T20:32:25.683Z,2.50
2017-08-03T20:34:54.763Z,2.10
2017-08-03T20:37:23.830Z,2.20
2017-08-03T20:39:52.883Z,2.90
2017-08-03T20:42:21.942Z,2.53
2017-08-03T20:44:51.004Z,2.97
2017-08-03T20:47:20.121Z,2.90
2017-08-03T20:49:49.179Z,2.83
2017-08-03T20:52:18.224Z,2.17
2017-08-03T20:54:48.055Z,2.63
2017-08-03T20:57:17.095Z,2.20
2017-08-03T20:59:46.212Z,2.70
2017-08-03T21:02:16.133Z,2.60
2017-08-03T21:04:45.214Z,2.30
2017-08-03T21:07:14.587Z,2.80
2017-08-03T21:09:43.631Z,2.20
2017-08-03T21:12:12.716Z,2.10
2017-08-03T21:14:41.805Z,2.57
2017-08-03T21:17:10.893Z,1.87
2017-08-03T21:19:39.964Z,2.20
2017-08-03T21:22:09.070Z,2.63
2017-08-03T21:24:38.328Z,2.40
2017-08-03T21:27:07.397Z,2.50
2017-08-03T21:29:36.451Z,2.10
2017-08-03T21:32:05.514Z,2.67
2017-08-03T21:34:35.332Z,2.30
2017-08-03T21:37:04.509Z,2.70
2017-08-03T21:39:33.553Z,2.47
2017-08-03T21:42:02.652Z,2.10
2017-08-03T21:44:31.690Z,2.43
2017-08-03T21:47:01.553Z,2.93
2017-08-03T21:49:30.589Z,2.63
2017-08-03T21:51:59.641Z,2.70
2017-08-03T21:54:28.698Z,2.50
2017-08-03T21:56:57.787Z,2.90
2017-08-03T21:59:27.696Z,2.60
2017-08-03T22:01:57.585Z,2.63
2017-08-03T22:04:26.614Z,2.60
2017-08-03T22:06:56.439Z,3.10
2017-08-03T22:09:25.517Z,2.60
2017-08-03T22:11:54.576Z,2.40
2017-08-03T22:14:23.626Z,2.20
2017-08-03T22:16:52.925Z,2.57
2017-08-03T22:19:21.979Z,2.30
2017-08-03T22:21:51.053Z,2.40
2017-08-03T22:24:20.115Z,2.53
2017-08-03T22:26:49.213Z,2.60
2017-08-03T22:29:18.259Z,2.47
2017-08-03T22:31:47.318Z,3.30
2017-08-03T22:34:16.384Z,2.40
2017-08-03T22:36:45.423Z,2.90
2017-08-03T22:39:16.158Z,2.60
2017-08-03T22:41:46.212Z,2.30
2017-08-03T22:44:16.244Z,2.30
2017-08-03T22:46:46.049Z,1.97
2017-08-03T22:49:15.905Z,2.83
2017-08-03T22:51:44.958Z,2.37
2017-08-03T22:54:14.065Z,2.60
2017-08-03T22:56:43.867Z,2.10
2017-08-03T22:59:12.931Z,2.57
2017-08-03T23:01:41.994Z,2.27
2017-08-03T23:04:11.053Z,2.50
2017-08-03T23:06:40.856Z,2.90
2017-08-03T23:09:10.698Z,2.30
2017-08-03T23:11:40.621Z,2.47
2017-08-03T23:14:09.663Z,2.20
2017-08-03T23:16:39.497Z,2.20
2017-08-03T23:19:08.545Z,2.40
2017-08-03T23:21:38.115Z,3.63
2017-08-03T23:24:07.923Z,2.43
2017-08-03T23:26:36.977Z,1.83
2017-08-03T23:29:06.068Z,2.83
2017-08-03T23:31:35.125Z,2.27
2017-08-03T23:34:04.197Z,2.00
2017-08-03T23:36:33.246Z,3.50
2017-08-03T23:39:02.293Z,2.23
2017-08-03T23:41:31.398Z,2.70
2017-08-03T23:44:00.437Z,2.80
2017-08-03T23:46:29.499Z,2.87
2017-08-03T23:48:58.559Z,2.67
2017-08-03T23:51:27.612Z,3.03
2017-08-03T23:53:56.657Z,2.27
2017-08-03T23:56:25.707Z,2.20
2017-08-03T23:58:54.784Z,2.90
